Time;durP1;ratioP1;P1;durP2;ratioP2;P2;SDS_P1;SDS_P2;PMS_P1;PMS_P2;Temp;Humidity;BMP_temperature;BMP_pressure;BME280_temperature;BME280_humidity;BME280_pressure;Samples;Min_cycle;Max_cycle;Signal;HPM_P1;HPM_P2
2022/06/22 00:01:18;;;;;;;15.98;9.68;;;13.10;99.90;;;;;;5008806;28;20046;-73
2022/06/22 00:03:50;;;;;;;12.35;9.90;;;13.00;99.90;;;;;;5013956;28;20049;-73
2022/06/22 00:06:43;;;;;;;14.40;10.23;;;13.00;99.90;;;;;;5026006;28;20067;-73
2022/06/22 00:09:20;;;;;;;;;;;13.00;99.90;;;;;;5022145;28;20438;-72
2022/06/22 00:11:46;;;;;;;13.18;10.38;;;13.00;99.90;;;;;;5049631;28;19927;-72
2022/06/22 00:14:24;;;;;;;13.68;9.77;;;12.90;99.90;;;;;;5035701;28;20033;-73
2022/06/22 00:16:55;;;;;;;15.05;10.15;;;12.80;99.90;;;;;;5040642;28;20045;-73
2022/06/22 00:19:39;;;;;;;15.00;9.88;;;12.80;99.90;;;;;;5040122;28;20413;-73
2022/06/22 00:22:05;;;;;;;12.07;9.25;;;12.70;99.90;;;;;;5032085;28;20264;-74
2022/06/22 00:24:37;;;;;;;16.65;10.68;;;12.70;99.90;;;;;;5014946;28;20116;-72
2022/06/22 00:27:19;;;;;;;12.05;10.07;;;12.70;99.90;;;;;;5031420;28;20111;-73
2022/06/22 00:29:58;;;;;;;12.35;9.70;;;12.60;99.90;;;;;;5030086;28;20513;-73
2022/06/22 00:32:29;;;;;;;13.77;9.82;;;12.60;99.90;;;;;;5029657;28;20103;-73
2022/06/22 00:34:55;;;;;;;14.55;10.90;;;12.50;99.90;;;;;;5029531;28;20057;-74
2022/06/22 00:37:36;;;;;;;12.38;10.25;;;12.50;99.90;;;;;;5005696;28;20471;-73
2022/06/22 00:40:15;;;;;;;14.68;10.00;;;12.40;99.90;;;;;;5030189;28;20180;-72
2022/06/22 00:42:44;;;;;;;11.73;9.57;;;12.40;99.90;;;;;;5025837;28;20056;-73
2022/06/22 00:45:11;;;;;;;13.23;9.02;;;12.40;99.90;;;;;;5031674;28;20966;-74
2022/06/22 00:47:53;;;;;;;16.67;12.02;;;12.40;99.90;;;;;;5019516;28;20033;-73
2022/06/22 00:50:27;;;;;;;15.55;11.23;;;12.40;99.90;;;;;;5027670;28;20068;-73
2022/06/22 00:53:22;;;;;;;20.45;12.20;;;12.30;99.90;;;;;;5027766;28;20091;-73
2022/06/22 00:56:21;;;;;;;14.98;11.25;;;12.30;99.90;;;;;;5007812;28;20049;-74
2022/06/22 00:59:12;;;;;;;12.93;11.45;;;12.20;99.90;;;;;;5028234;28;20422;-73
2022/06/22 01:01:48;;;;;;;17.55;11.70;;;12.20;99.90;;;;;;5003283;28;20069;-73
2022/06/22 01:04:30;;;;;;;14.32;11.93;;;12.10;99.90;;;;;;5027338;28;20125;-73
2022/06/22 01:07:06;;;;;;;16.67;12.05;;;12.10;99.90;;;;;;5031515;28;20088;-73
2022/06/22 01:10:11;;;;;;;20.08;13.23;;;12.00;99.90;;;;;;5041932;28;20036;-73
2022/06/22 01:12:56;;;;;;;17.88;12.20;;;12.00;99.90;;;;;;5028612;28;20069;-74
2022/06/22 01:15:36;;;;;;;16.38;11.77;;;12.00;99.90;;;;;;5040180;28;20146;-73
2022/06/22 01:18:10;;;;;;;18.05;11.48;;;11.90;99.90;;;;;;5012577;28;20041;-73
2022/06/22 01:20:57;;;;;;;18.45;12.25;;;11.90;99.90;;;;;;5027427;28;20463;-74
2022/06/22 01:23:58;;;;;;;18.95;12.02;;;11.90;99.90;;;;;;5028106;28;20116;-73
2022/06/22 01:27:04;;;;;;;17.40;12.35;;;11.90;99.90;;;;;;5011493;28;20077;-73
2022/06/22 01:29:30;;;;;;;16.70;11.20;;;11.80;99.90;;;;;;5039277;28;20040;-74
2022/06/22 01:32:13;;;;;;;12.52;9.30;;;11.70;99.90;;;;;;5011760;28;20041;-73
2022/06/22 01:34:43;;;;;;;14.63;10.38;;;11.60;99.90;;;;;;5028030;28;20053;-74
2022/06/22 01:37:16;;;;;;;12.85;9.60;;;11.60;99.90;;;;;;5032055;28;20045;-73
2022/06/22 01:39:42;;;;;;;15.00;9.93;;;11.50;99.90;;;;;;5011550;28;20071;-73
2022/06/22 01:42:30;;;;;;;20.58;10.93;;;11.50;99.90;;;;;;5026446;28;20041;-74
2022/06/22 01:45:01;;;;;;;14.10;10.48;;;11.50;99.90;;;;;;5012535;28;20037;-73
2022/06/22 01:47:57;;;;;;;16.67;12.38;;;11.40;99.90;;;;;;5014845;28;20041;-73
2022/06/22 01:50:35;;;;;;;14.55;11.23;;;11.40;99.90;;;;;;5031272;28;20379;-73
2022/06/22 01:53:19;;;;;;;16.98;10.90;;;11.30;99.90;;;;;;5019594;28;20087;-73
2022/06/22 01:55:57;;;;;;;10.50;8.52;;;11.20;99.90;;;;;;5032256;28;20056;-73
2022/06/22 01:58:49;;;;;;;14.30;10.93;;;11.20;99.90;;;;;;5011313;28;20033;-73
2022/06/22 02:01:30;;;;;;;14.75;10.98;;;11.20;99.90;;;;;;5028971;28;20041;-74
2022/06/22 02:04:22;;;;;;;12.93;9.80;;;11.10;99.90;;;;;;5015488;28;20049;-73
2022/06/22 02:10:00;;;;;;;9.05;7.32;;;11.00;99.90;;;;;;5037764;28;20045;-73
2022/06/22 02:12:30;;;;;;;8.98;7.55;;;10.80;99.90;;;;;;5015132;28;20061;-73
2022/06/22 02:15:54;;;;;;;9.55;7.40;;;10.80;99.90;;;;;;5013562;28;20038;-73
2022/06/22 02:18:57;;;;;;;12.15;8.80;;;10.70;99.90;;;;;;5004385;28;20522;-73
2022/06/22 02:21:26;;;;;;;11.68;10.20;;;10.70;99.90;;;;;;5030613;28;20038;-73
2022/06/22 02:24:06;;;;;;;15.98;10.30;;;10.60;99.90;;;;;;5028957;28;20065;-73
2022/06/22 02:26:47;;;;;;;11.95;8.93;;;10.70;99.90;;;;;;5017470;28;20048;-73
2022/06/22 02:29:16;;;;;;;12.07;9.70;;;10.60;99.90;;;;;;5025972;28;20034;-74
2022/06/22 02:31:42;;;;;;;13.05;9.55;;;10.60;99.90;;;;;;5031817;28;20083;-73
2022/06/22 02:34:11;;;;;;;10.95;9.77;;;10.60;99.90;;;;;;5029931;28;20052;-73
2022/06/22 02:36:41;;;;;;;11.52;10.27;;;10.60;99.90;;;;;;5031378;28;20518;-73
2022/06/22 02:39:09;;;;;;;11.10;9.68;;;10.50;99.90;;;;;;5026558;28;20041;-73
2022/06/22 02:44:40;;;;;;;12.20;10.00;;;10.40;99.90;;;;;;5015300;28;20041;-73
2022/06/22 02:47:31;;;;;;;10.90;8.95;;;10.40;99.90;;;;;;5026403;28;20065;-74
2022/06/22 02:50:20;;;;;;;10.45;9.02;;;10.40;99.90;;;;;;5028311;28;20121;-73
2022/06/22 02:52:50;;;;;;;13.32;10.25;;;10.40;99.90;;;;;;5023936;28;20040;-74
2022/06/22 02:55:22;;;;;;;16.00;10.23;;;10.40;99.90;;;;;;5011596;28;20484;-73
2022/06/22 02:57:57;;;;;;;12.85;10.20;;;10.40;99.90;;;;;;5027917;28;20064;-74
2022/06/22 03:00:31;;;;;;;13.25;9.32;;;10.40;99.90;;;;;;5043176;28;20030;-73
2022/06/22 03:03:05;;;;;;;14.32;9.85;;;10.40;99.90;;;;;;5030120;28;20088;-73
2022/06/22 03:05:33;;;;;;;15.15;9.82;;;10.40;99.90;;;;;;5026187;28;20033;-73
2022/06/22 03:08:00;;;;;;;11.95;9.45;;;10.40;99.90;;;;;;5013208;28;20052;-73
2022/06/22 03:10:31;;;;;;;16.67;11.38;;;10.30;99.90;;;;;;5011386;28;20102;-74
2022/06/22 03:12:59;;;;;;;15.65;11.30;;;10.30;99.90;;;;;;5029051;28;20048;-73
2022/06/22 03:15:28;;;;;;;13.93;11.65;;;10.30;99.90;;;;;;5026008;28;20038;-73
2022/06/22 03:17:57;;;;;;;17.08;12.48;;;10.30;99.90;;;;;;5025388;28;20037;-73
2022/06/22 03:20:26;;;;;;;19.73;12.55;;;10.30;99.90;;;;;;5008652;28;20041;-73
2022/06/22 03:23:17;;;;;;;24.38;12.52;;;10.30;99.90;;;;;;5028103;28;20108;-73
2022/06/22 03:25:49;;;;;;;17.10;12.07;;;10.30;99.90;;;;;;5019624;28;20046;-73
2022/06/22 03:28:18;;;;;;;16.00;11.45;;;10.20;99.90;;;;;;5040553;28;20052;-73
2022/06/22 03:30:54;;;;;;;88.82;10.85;;;10.20;99.90;;;;;;5027787;28;20071;-73
2022/06/22 03:33:44;;;;;;;87.20;10.32;;;10.20;99.90;;;;;;5011238;28;20129;-74
2022/06/22 03:36:45;;;;;;;59.80;12.70;;;10.20;99.90;;;;;;5029822;28;20053;-73
2022/06/22 03:39:15;;;;;;;21.40;10.43;;;10.10;99.90;;;;;;5007059;28;20128;-74
2022/06/22 03:41:51;;;;;;;15.18;10.52;;;10.00;99.90;;;;;;5013538;28;20049;-74
2022/06/22 03:44:29;;;;;;;27.63;12.43;;;9.90;99.90;;;;;;5028498;28;20075;-74
2022/06/22 03:47:01;;;;;;;61.22;14.38;;;9.90;99.90;;;;;;5027839;28;20041;-73
2022/06/22 03:49:31;;;;;;;;;;;9.90;99.90;;;;;;5027185;28;20037;-73
2022/06/22 03:52:09;;;;;;;26.55;10.93;;;9.80;99.90;;;;;;5027836;28;19956;-73
2022/06/22 03:54:52;;;;;;;17.75;9.27;;;9.70;99.90;;;;;;5008702;28;20045;-73
2022/06/22 03:57:22;;;;;;;13.90;8.25;;;9.60;99.90;;;;;;5031266;28;20037;-73
2022/06/22 03:59:48;;;;;;;25.15;8.90;;;9.60;99.90;;;;;;5014514;28;20073;-74
2022/06/22 04:02:17;;;;;;;54.25;10.23;;;9.60;99.90;;;;;;4996156;28;20462;-73
2022/06/22 04:04:43;;;;;;;72.10;10.90;;;9.50;99.90;;;;;;4994886;28;20062;-74
2022/06/22 04:07:13;;;;;;;75.68;11.07;;;9.50;99.90;;;;;;5022796;28;20042;-73
2022/06/22 04:09:47;;;;;;;65.80;12.43;;;9.50;99.90;;;;;;5016812;28;20537;-73
2022/06/22 04:12:23;;;;;;;79.65;12.50;;;9.40;99.90;;;;;;5020061;28;20414;-73
2022/06/22 04:15:33;;;;;;;43.05;10.68;;;9.40;99.90;;;;;;5030149;28;20453;-73
2022/06/22 04:18:33;;;;;;;12.95;9.75;;;9.40;99.90;;;;;;4941516;28;20039;-73
2022/06/22 04:21:04;;;;;;;18.25;11.68;;;9.40;99.90;;;;;;4939542;28;20051;-73
2022/06/22 04:23:44;;;;;;;35.53;12.50;;;9.50;99.90;;;;;;5006942;28;20191;-73
2022/06/22 04:26:22;;;;;;;24.65;11.35;;;9.60;99.90;;;;;;5027003;28;20503;-73
2022/06/22 04:28:52;;;;;;;18.38;11.27;;;9.50;99.90;;;;;;5022997;28;20032;-73
2022/06/22 04:31:26;;;;;;;16.77;11.82;;;9.60;99.90;;;;;;5013609;28;20043;-73
2022/06/22 04:33:58;;;;;;;19.10;12.00;;;9.70;99.90;;;;;;5009492;28;20156;-73
2022/06/22 04:36:27;;;;;;;;;;;9.70;99.90;;;;;;5035092;28;20564;-73
2022/06/22 04:39:08;;;;;;;16.10;9.73;;;9.80;99.90;;;;;;5029307;28;19921;-73
2022/06/22 04:41:40;;;;;;;22.65;10.25;;;9.80;99.90;;;;;;5040662;28;20107;-73
2022/06/22 04:44:13;;;;;;;18.88;10.23;;;9.80;99.90;;;;;;5035013;28;20085;-73
2022/06/22 04:46:46;;;;;;;19.33;11.07;;;9.80;99.90;;;;;;5028522;28;20045;-73
2022/06/22 04:49:23;;;;;;;25.13;10.93;;;9.80;99.90;;;;;;5004361;28;20570;-73
2022/06/22 04:51:59;;;;;;;21.42;10.60;;;9.80;99.90;;;;;;5026579;28;20493;-73
2022/06/22 04:54:31;;;;;;;24.67;11.13;;;9.80;99.90;;;;;;5043068;28;20040;-74
2022/06/22 04:57:07;;;;;;;18.75;10.68;;;9.90;99.90;;;;;;5030108;28;20116;-73
2022/06/22 04:59:33;;;;;;;16.70;11.98;;;9.90;99.90;;;;;;5029135;28;20060;-73
2022/06/22 05:02:03;;;;;;;17.13;12.10;;;10.00;99.90;;;;;;5012886;28;20367;-73
2022/06/22 05:04:35;;;;;;;19.70;13.43;;;10.00;99.90;;;;;;5026008;28;20557;-73
2022/06/22 05:07:26;;;;;;;17.85;13.38;;;10.10;99.90;;;;;;5000523;28;20430;-73
2022/06/22 05:09:58;;;;;;;19.25;13.43;;;10.10;99.90;;;;;;5011747;28;20042;-74
2022/06/22 05:12:27;;;;;;;20.60;14.35;;;10.20;99.90;;;;;;5020760;28;20068;-73
2022/06/22 05:14:56;;;;;;;20.23;13.95;;;10.30;99.90;;;;;;5012998;28;20049;-74
2022/06/22 05:17:34;;;;;;;19.50;14.15;;;10.40;99.90;;;;;;5009866;28;20069;-73
2022/06/22 05:20:00;;;;;;;22.00;16.00;;;10.50;99.90;;;;;;5011207;28;20038;-73
2022/06/22 05:22:26;;;;;;;21.15;14.82;;;10.60;99.90;;;;;;5004535;28;20045;-73
2022/06/22 05:25:05;;;;;;;21.60;16.50;;;10.70;99.90;;;;;;4996595;28;20160;-73
2022/06/22 05:27:41;;;;;;;23.42;15.75;;;10.80;99.90;;;;;;5001748;28;20473;-74
2022/06/22 05:30:08;;;;;;;21.15;15.13;;;10.90;99.90;;;;;;5027679;28;20044;-73
2022/06/22 05:32:49;;;;;;;25.23;16.60;;;11.00;99.90;;;;;;5004280;28;20065;-73
2022/06/22 05:35:23;;;;;;;26.73;16.88;;;11.10;99.90;;;;;;5029109;28;20049;-73
2022/06/22 05:37:52;;;;;;;26.95;17.77;;;11.20;99.90;;;;;;5028679;28;20054;-73
2022/06/22 05:40:21;;;;;;;29.88;17.67;;;11.30;99.90;;;;;;5012362;28;20034;-73
2022/06/22 05:42:47;;;;;;;31.35;18.25;;;11.40;99.90;;;;;;5011027;28;20037;-73
2022/06/22 05:45:19;;;;;;;26.38;18.23;;;11.50;99.90;;;;;;5021878;28;20180;-74
2022/06/22 05:47:45;;;;;;;26.60;17.52;;;11.60;99.90;;;;;;5045524;28;20040;-73
2022/06/22 05:50:41;;;;;;;23.95;16.98;;;11.70;99.90;;;;;;4996453;28;20515;-74
2022/06/22 05:53:29;;;;;;;24.23;16.20;;;11.80;99.90;;;;;;5025797;28;20454;-73
2022/06/22 05:56:18;;;;;;;25.88;17.20;;;11.90;99.90;;;;;;5012113;28;20081;-73
2022/06/22 05:59:06;;;;;;;24.40;17.02;;;12.00;99.90;;;;;;5035283;28;20046;-73
2022/06/22 06:02:01;;;;;;;25.70;16.25;;;12.10;99.90;;;;;;5039649;28;20061;-73
2022/06/22 06:04:34;;;;;;;25.02;16.98;;;12.20;99.90;;;;;;4998587;28;20074;-73
2022/06/22 06:07:10;;;;;;;26.92;16.70;;;12.30;99.90;;;;;;5011380;28;20045;-73
2022/06/22 06:09:36;;;;;;;25.10;16.23;;;12.40;99.90;;;;;;5010380;28;20510;-73
2022/06/22 06:12:15;;;;;;;24.45;16.30;;;12.50;99.90;;;;;;5015429;28;20042;-73
2022/06/22 06:14:46;;;;;;;26.25;17.30;;;12.60;99.90;;;;;;5024026;28;20458;-73
2022/06/22 06:17:19;;;;;;;25.63;16.50;;;12.70;99.90;;;;;;5027186;28;20138;-73
2022/06/22 06:19:51;;;;;;;27.35;16.42;;;12.80;99.90;;;;;;5025782;28;20070;-73
2022/06/22 06:22:17;;;;;;;25.90;16.35;;;12.90;99.90;;;;;;5026322;28;20038;-73
2022/06/22 06:27:41;;;;;;;25.55;16.38;;;13.10;99.90;;;;;;5026614;28;20172;-72
2022/06/22 06:30:18;;;;;;;22.58;15.73;;;13.20;99.90;;;;;;5042867;28;20034;-72
2022/06/22 06:32:47;;;;;;;23.00;15.10;;;13.40;99.90;;;;;;5036388;28;20435;-72
2022/06/22 06:35:21;;;;;;;22.17;15.45;;;13.60;99.90;;;;;;5011906;28;20648;-72
2022/06/22 06:38:04;;;;;;;19.80;14.43;;;13.70;99.90;;;;;;5010776;28;20038;-73
2022/06/22 06:40:53;;;;;;;20.95;14.80;;;13.80;99.90;;;;;;5028176;28;20067;-72
2022/06/22 06:43:30;;;;;;;19.55;14.55;;;14.00;99.90;;;;;;5028788;28;20037;-73
2022/06/22 06:45:58;;;;;;;18.75;14.40;;;14.20;99.90;;;;;;5027793;28;20037;-73
2022/06/22 06:48:26;;;;;;;22.20;13.95;;;14.30;99.90;;;;;;5029583;28;20403;-73
2022/06/22 06:50:56;;;;;;;20.63;15.02;;;14.50;99.90;;;;;;5028504;28;20050;-72
2022/06/22 06:53:36;;;;;;;17.17;13.82;;;14.60;99.90;;;;;;5027894;28;20064;-72
2022/06/22 06:56:13;;;;;;;22.52;12.75;;;14.70;99.90;;;;;;5028017;28;20033;-72
2022/06/22 06:58:50;;;;;;;15.98;12.45;;;14.90;99.90;;;;;;5036316;28;20041;-72
2022/06/22 07:01:20;;;;;;;17.42;11.60;;;15.00;99.90;;;;;;5012092;28;20565;-72
2022/06/22 07:03:56;;;;;;;15.20;9.93;;;15.20;99.90;;;;;;5028120;28;20557;-72
2022/06/22 07:06:22;;;;;;;14.45;11.98;;;15.30;99.90;;;;;;5017562;28;20084;-72
2022/06/22 07:09:17;;;;;;;14.55;9.48;;;15.50;99.90;;;;;;5027035;28;20433;-72
2022/06/22 07:11:51;;;;;;;11.35;8.15;;;15.60;99.90;;;;;;5024471;28;20053;-72
2022/06/22 07:14:35;;;;;;;9.98;7.70;;;15.80;99.90;;;;;;5029491;28;20117;-72
2022/06/22 07:17:09;;;;;;;11.20;8.05;;;15.90;99.90;;;;;;5027957;28;20037;-72
2022/06/22 07:19:43;;;;;;;8.38;5.93;;;16.10;99.90;;;;;;5025844;28;20557;-72
2022/06/22 07:22:31;;;;;;;11.32;6.53;;;16.30;99.90;;;;;;5021325;28;20537;-72
2022/06/22 07:25:18;;;;;;;5.50;3.47;;;16.40;99.90;;;;;;5026422;28;20033;-72
2022/06/22 07:28:42;;;;;;;7.72;4.50;;;16.60;99.90;;;;;;5043849;28;20041;-72
2022/06/22 07:31:23;;;;;;;5.95;3.67;;;16.70;99.90;;;;;;4964931;28;20089;-72
2022/06/22 07:33:57;;;;;;;6.50;5.23;;;16.90;99.90;;;;;;4982392;28;20736;-72
2022/06/22 07:36:35;;;;;;;13.40;4.93;;;17.00;99.90;;;;;;5019671;28;20084;-72
2022/06/22 07:39:25;;;;;;;3.35;3.00;;;17.20;99.90;;;;;;5029255;28;20044;-72
2022/06/22 07:41:51;;;;;;;5.03;3.85;;;17.20;99.90;;;;;;5012016;28;20036;-72
2022/06/22 07:44:24;;;;;;;5.65;3.95;;;17.30;99.90;;;;;;5026914;28;20099;-72
2022/06/22 07:47:05;;;;;;;4.72;3.70;;;17.40;99.90;;;;;;5026045;28;20045;-72
2022/06/22 07:49:42;;;;;;;9.07;4.45;;;17.60;99.90;;;;;;5028784;28;20183;-72
2022/06/22 07:52:15;;;;;;;7.35;3.70;;;17.70;99.90;;;;;;5028057;28;20490;-72
2022/06/22 07:54:48;;;;;;;8.00;4.05;;;17.80;99.90;;;;;;5024062;28;20080;-72
2022/06/22 07:57:39;;;;;;;7.15;4.35;;;18.00;99.90;;;;;;5040721;28;20111;-72
2022/06/22 08:00:18;;;;;;;8.05;3.70;;;18.00;98.80;;;;;;5027363;28;20056;-72
2022/06/22 08:03:00;;;;;;;7.38;4.63;;;18.20;99.90;;;;;;5032273;28;20096;-73
2022/06/22 08:05:31;;;;;;;4.95;3.80;;;18.30;99.00;;;;;;5022236;28;20033;-72
2022/06/22 08:08:05;;;;;;;6.32;3.90;;;18.50;99.00;;;;;;5035696;28;20076;-72
2022/06/22 08:10:44;;;;;;;5.22;3.22;;;18.70;99.30;;;;;;5038565;28;20162;-72
2022/06/22 08:13:19;;;;;;;5.15;3.25;;;18.90;98.30;;;;;;5030768;28;20046;-72
2022/06/22 08:15:50;;;;;;;5.88;3.63;;;19.00;97.50;;;;;;5017508;28;20053;-72
2022/06/22 08:18:16;;;;;;;6.25;3.30;;;19.20;96.80;;;;;;5030665;28;20073;-73
2022/06/22 08:20:49;;;;;;;10.50;4.20;;;19.20;96.30;;;;;;5019836;28;20038;-72
2022/06/22 08:23:23;;;;;;;5.40;3.10;;;19.30;96.10;;;;;;5022814;28;20452;-73
2022/06/22 08:25:53;;;;;;;5.43;3.88;;;19.40;95.50;;;;;;5019309;28;20069;-73
2022/06/22 08:28:29;;;;;;;4.63;3.28;;;19.50;95.50;;;;;;5035157;28;20037;-72
2022/06/22 08:30:56;;;;;;;6.10;3.42;;;19.70;95.20;;;;;;5039859;28;20045;-73
2022/06/22 08:33:31;;;;;;;6.57;3.83;;;19.80;95.20;;;;;;5019501;28;20549;-72
2022/06/22 08:36:06;;;;;;;6.72;3.35;;;19.90;94.60;;;;;;5018510;28;20052;-73
2022/06/22 08:38:43;;;;;;;5.15;3.65;;;20.00;94.70;;;;;;5030960;28;20037;-72
2022/06/22 08:41:36;;;;;;;6.30;3.03;;;20.20;94.50;;;;;;5019736;28;20121;-73
2022/06/22 08:44:25;;;;;;;6.35;3.60;;;20.30;92.00;;;;;;5014405;28;20096;-72
2022/06/22 08:47:34;;;;;;;6.93;3.53;;;20.30;92.70;;;;;;5031516;28;20501;-73
2022/06/22 08:50:17;;;;;;;4.45;2.67;;;20.40;92.20;;;;;;5013486;28;20112;-72
2022/06/22 08:53:11;;;;;;;5.05;2.72;;;20.50;91.70;;;;;;5026995;28;20038;-72
2022/06/22 08:56:14;;;;;;;5.22;2.75;;;20.60;91.20;;;;;;5025604;28;20041;-72
2022/06/22 08:59:05;;;;;;;3.65;2.53;;;20.60;91.40;;;;;;5031169;28;20526;-73
2022/06/22 09:01:31;;;;;;;6.03;3.50;;;20.80;91.20;;;;;;5031808;28;20030;-73
2022/06/22 09:04:41;;;;;;;5.88;3.05;;;20.90;91.40;;;;;;5013887;28;20041;-73
2022/06/22 09:07:25;;;;;;;5.30;2.92;;;21.00;90.40;;;;;;5011754;28;20084;-72
2022/06/22 09:10:15;;;;;;;5.28;2.95;;;21.10;89.50;;;;;;5030578;28;20494;-72
2022/06/22 09:12:46;;;;;;;4.50;2.65;;;21.20;88.40;;;;;;5028702;28;20037;-72
2022/06/22 09:15:18;;;;;;;4.38;2.83;;;21.20;88.80;;;;;;5042826;28;20034;-73
2022/06/22 09:17:55;;;;;;;3.67;2.88;;;21.20;89.60;;;;;;5038097;28;20414;-72
2022/06/22 09:21:05;;;;;;;4.78;3.05;;;21.30;88.40;;;;;;5031236;28;20480;-72
2022/06/22 09:23:45;;;;;;;5.20;3.17;;;21.40;87.50;;;;;;5007465;28;20057;-72
2022/06/22 09:26:18;;;;;;;7.63;3.50;;;21.50;87.70;;;;;;5020783;28;20041;-72
2022/06/22 09:28:52;;;;;;;5.13;3.30;;;21.70;87.80;;;;;;5015303;28;20088;-72
2022/06/22 09:31:23;;;;;;;6.07;3.47;;;21.80;88.50;;;;;;5029900;28;20034;-72
2022/06/22 09:33:58;;;;;;;6.07;2.92;;;22.00;87.70;;;;;;5018524;28;20054;-72
2022/06/22 09:36:32;;;;;;;5.70;3.20;;;22.10;84.40;;;;;;5037774;28;20049;-72
2022/06/22 09:39:21;;;;;;;6.70;2.42;;;22.10;83.90;;;;;;5018059;28;20046;-73
2022/06/22 09:42:06;;;;;;;8.10;3.55;;;22.20;84.10;;;;;;5032105;28;20056;-72
2022/06/22 09:44:47;;;;;;;4.20;3.00;;;22.30;84.00;;;;;;5024382;28;20471;-75
2022/06/22 09:47:15;;;;;;;4.85;3.10;;;22.30;81.10;;;;;;5039021;28;20102;-74
2022/06/22 09:50:00;;;;;;;4.30;2.83;;;22.50;84.60;;;;;;5023913;28;20095;-77
2022/06/22 09:52:58;;;;;;;7.30;3.10;;;22.70;86.00;;;;;;5030488;28;20431;-80
2022/06/22 09:59:07;;;;;;;6.20;3.20;;;22.60;79.80;;;;;;5016845;28;20434;-81
2022/06/22 10:01:54;;;;;;;5.78;2.83;;;22.50;79.10;;;;;;5018398;28;20495;-76
2022/06/22 10:04:57;;;;;;;4.20;2.60;;;22.60;79.30;;;;;;5020397;28;20041;-78
2022/06/22 10:07:47;;;;;;;5.05;2.75;;;22.60;75.10;;;;;;5023866;28;20111;-78
2022/06/22 10:10:21;;;;;;;5.20;2.70;;;22.60;76.50;;;;;;5019444;28;20084;-78
2022/06/22 10:13:17;;;;;;;6.28;3.03;;;22.70;76.90;;;;;;5039581;28;20475;-80
2022/06/22 10:16:04;;;;;;;7.82;3.45;;;22.80;76.30;;;;;;5010220;28;20045;-76
2022/06/22 10:19:00;;;;;;;5.68;3.30;;;22.90;78.60;;;;;;5034780;28;20646;-78
2022/06/22 10:21:52;;;;;;;7.82;6.50;;;23.00;76.10;;;;;;5044666;28;20029;-83
2022/06/22 10:24:30;;;;;;;5.65;3.05;;;23.00;76.70;;;;;;5017897;28;20128;-78
2022/06/22 10:27:26;;;;;;;5.88;3.30;;;23.00;77.80;;;;;;5008131;28;20103;-78
2022/06/22 10:30:06;;;;;;;6.50;3.30;;;23.30;76.40;;;;;;5037193;28;20059;-80
2022/06/22 10:32:38;;;;;;;4.07;3.00;;;23.30;74.20;;;;;;5011043;28;20041;-78
2022/06/22 10:35:19;;;;;;;6.53;3.45;;;23.40;76.10;;;;;;5024023;28;20515;-78
2022/06/22 10:38:11;;;;;;;4.40;2.47;;;23.50;75.20;;;;;;5020587;28;20091;-78
2022/06/22 10:46:36;;;;;;;6.53;3.53;;;24.00;77.20;;;;;;5018753;28;20038;-78
2022/06/22 10:49:11;;;;;;;4.45;2.80;;;24.10;73.80;;;;;;5035462;28;20047;-78
2022/06/22 10:51:58;;;;;;;5.85;3.10;;;24.10;73.70;;;;;;5038633;28;20144;-78
2022/06/22 10:55:00;;;;;;;5.97;3.08;;;24.10;72.80;;;;;;5034974;28;20538;-78
2022/06/22 10:57:53;;;;;;;5.23;3.23;;;24.30;72.10;;;;;;5020815;28;20069;-79
2022/06/22 11:00:42;;;;;;;4.53;2.58;;;24.30;72.60;;;;;;5030853;28;20348;-78
2022/06/22 11:03:30;;;;;;;4.13;2.00;;;24.30;72.10;;;;;;5016673;28;20113;-78
2022/06/22 11:06:31;;;;;;;5.25;2.38;;;24.40;71.70;;;;;;5028601;28;20033;-78
2022/06/22 11:09:20;;;;;;;7.30;2.20;;;24.40;69.00;;;;;;5041213;28;20057;-78
2022/06/22 11:12:05;;;;;;;3.63;2.00;;;24.60;71.20;;;;;;5044634;28;20092;-78
2022/06/22 11:15:05;;;;;;;2.83;1.85;;;24.80;69.90;;;;;;5030413;28;20088;-78
2022/06/22 11:17:59;;;;;;;4.32;2.00;;;24.90;66.00;;;;;;4993763;28;20610;-78
2022/06/22 11:20:40;;;;;;;4.15;2.00;;;24.70;65.90;;;;;;5014067;28;20037;-78
2022/06/22 11:23:12;;;;;;;11.30;2.38;;;24.80;68.30;;;;;;5029914;28;20045;-78
2022/06/22 11:32:33;;;;;;;2.95;1.92;;;24.90;67.70;;;;;;5030880;28;20045;-79
2022/06/22 11:35:26;;;;;;;5.72;2.10;;;25.10;67.60;;;;;;5004942;28;20096;-79
2022/06/22 11:37:58;;;;;;;4.63;2.20;;;25.20;67.30;;;;;;5021214;28;20046;-78
2022/06/22 11:41:06;;;;;;;2.58;1.73;;;25.30;65.70;;;;;;5025635;28;20068;-78
2022/06/22 11:44:11;;;;;;;3.88;1.88;;;25.20;63.00;;;;;;5008855;28;20502;-78
2022/06/22 11:46:45;;;;;;;3.42;1.80;;;25.20;62.90;;;;;;5010943;28;20049;-78
2022/06/22 11:49:19;;;;;;;5.88;1.70;;;25.10;63.20;;;;;;5043254;28;20034;-78
2022/06/22 11:51:52;;;;;;;9.95;2.45;;;25.20;63.40;;;;;;5022147;28;20041;-77
2022/06/22 11:54:41;;;;;;;2.03;1.80;;;25.20;63.90;;;;;;5008939;28;20395;-77
2022/06/22 11:57:23;;;;;;;3.42;1.85;;;25.40;64.10;;;;;;5005176;28;20176;-77
2022/06/22 11:59:57;;;;;;;;;;;25.40;63.90;;;;;;5030412;28;20041;-77
2022/06/22 12:02:47;;;;;;;3.85;2.00;;;25.50;61.50;;;;;;5030233;28;20003;-77
2022/06/22 12:05:19;;;;;;;2.67;1.70;;;25.50;60.20;;;;;;5010925;28;20044;-77
2022/06/22 12:08:01;;;;;;;5.00;1.85;;;25.50;62.50;;;;;;5015658;28;20095;-77
2022/06/22 12:10:36;;;;;;;4.05;2.00;;;25.60;61.40;;;;;;5036007;28;20040;-79
2022/06/22 12:13:11;;;;;;;4.45;1.90;;;25.60;61.60;;;;;;5030935;28;20462;-78
2022/06/22 12:15:46;;;;;;;56.78;4.20;;;25.60;62.50;;;;;;5018834;28;20049;-78
2022/06/22 12:18:48;;;;;;;2.28;1.67;;;25.70;63.10;;;;;;5028838;28;20038;-78
2022/06/22 12:21:19;;;;;;;4.07;1.70;;;25.70;61.90;;;;;;5032576;28;20045;-77
2022/06/22 12:24:07;;;;;;;4.30;1.67;;;25.80;60.60;;;;;;5010474;28;20038;-78
2022/06/22 12:26:54;;;;;;;3.10;1.50;;;25.90;59.00;;;;;;5029948;28;20034;-77
2022/06/22 12:29:58;;;;;;;3.85;1.80;;;26.00;61.90;;;;;;5046209;28;20037;-78
2022/06/22 12:32:41;;;;;;;5.10;2.10;;;26.10;61.50;;;;;;5027400;28;20053;-79
2022/06/22 12:35:16;;;;;;;3.35;1.80;;;26.10;61.40;;;;;;5042149;28;20156;-78
2022/06/22 12:37:53;;;;;;;2.45;2.00;;;26.10;59.30;;;;;;5046243;28;20507;-77
2022/06/22 12:40:44;;;;;;;5.80;1.67;;;26.00;60.10;;;;;;5012553;28;20037;-77
2022/06/22 12:43:25;;;;;;;2.97;1.77;;;26.00;61.20;;;;;;5002958;28;20041;-77
2022/06/22 12:45:56;;;;;;;3.35;1.90;;;26.10;58.90;;;;;;5029332;28;20125;-77
2022/06/22 12:49:06;;;;;;;2.57;1.53;;;26.00;59.40;;;;;;5025663;28;20092;-78
2022/06/22 12:51:51;;;;;;;2.67;1.83;;;26.10;59.60;;;;;;5007270;28;20045;-78
2022/06/22 12:54:26;;;;;;;3.65;1.67;;;26.20;58.30;;;;;;5033968;28;20128;-77
2022/06/22 12:57:04;;;;;;;4.60;1.85;;;26.20;59.20;;;;;;5035702;28;20046;-78
2022/06/22 12:59:50;;;;;;;3.13;1.52;;;26.30;59.10;;;;;;5006208;28;20042;-77
2022/06/22 13:02:26;;;;;;;2.78;1.50;;;26.40;58.00;;;;;;5023290;28;20453;-78
2022/06/22 13:05:03;;;;;;;3.50;1.65;;;26.40;57.30;;;;;;5028054;28;20041;-78
2022/06/22 13:07:32;;;;;;;3.20;1.65;;;26.50;56.30;;;;;;5017225;28;20130;-77
2022/06/22 13:09:58;;;;;;;4.28;1.60;;;26.60;56.20;;;;;;5014446;28;20496;-77
2022/06/22 13:12:40;;;;;;;4.40;1.70;;;26.60;55.30;;;;;;5009273;28;20121;-78
2022/06/22 13:15:16;;;;;;;2.63;2.00;;;26.70;56.60;;;;;;5023068;28;20054;-77
2022/06/22 13:18:09;;;;;;;2.58;1.65;;;26.70;58.00;;;;;;5026379;28;20081;-77
2022/06/22 13:20:54;;;;;;;3.58;1.55;;;26.60;58.40;;;;;;5018674;28;20041;-77
2022/06/22 13:23:31;;;;;;;2.42;1.80;;;26.80;60.20;;;;;;5025938;28;20121;-77
2022/06/22 13:26:21;;;;;;;3.05;1.70;;;26.80;57.10;;;;;;5012839;28;20033;-78
2022/06/22 13:28:59;;;;;;;4.22;1.70;;;26.80;57.20;;;;;;5017531;28;20041;-77
2022/06/22 13:31:32;;;;;;;3.42;1.70;;;26.90;55.00;;;;;;5031776;28;20072;-78
2022/06/22 13:34:05;;;;;;;3.42;1.80;;;26.90;55.10;;;;;;5017266;28;20530;-78
2022/06/22 13:36:46;;;;;;;3.20;2.00;;;26.90;55.90;;;;;;5009397;28;20042;-78
2022/06/22 13:39:21;;;;;;;3.13;1.88;;;26.90;56.20;;;;;;5002439;28;20044;-76
2022/06/22 13:42:18;;;;;;;4.53;1.90;;;26.80;58.20;;;;;;5015644;28;20034;-79
2022/06/22 13:44:43;;;;;;;2.25;1.80;;;26.80;58.30;;;;;;5047205;28;20045;-77
2022/06/22 13:47:27;;;;;;;5.35;1.77;;;26.80;58.90;;;;;;5015612;28;20048;-77
2022/06/22 13:50:49;;;;;;;3.33;1.95;;;26.90;58.80;;;;;;5039417;28;20095;-78
2022/06/22 13:53:21;;;;;;;3.58;1.98;;;27.00;59.70;;;;;;5022913;28;20057;-77
2022/06/22 13:56:24;;;;;;;6.95;2.33;;;26.90;60.10;;;;;;5035276;28;20045;-77
2022/06/22 13:58:53;;;;;;;3.95;2.10;;;27.00;59.50;;;;;;5026736;28;20041;-78
2022/06/22 14:01:35;;;;;;;4.30;2.10;;;27.10;59.90;;;;;;5037939;28;20048;-78
2022/06/22 14:04:29;;;;;;;4.03;1.90;;;26.90;57.90;;;;;;5038256;28;20467;-78
2022/06/22 14:07:09;;;;;;;5.63;2.35;;;26.90;60.00;;;;;;5041549;28;20059;-75
2022/06/22 14:09:42;;;;;;;8.15;2.20;;;27.00;60.60;;;;;;5015133;28;20493;-75